Time;durP1;ratioP1;P1;durP2;ratioP2;P2;SDS_P1;SDS_P2;PMS_P1;PMS_P2;Temp;Humidity;BMP_temperature;BMP_pressure;BME280_temperature;BME280_humidity;BME280_pressure;Samples;Min_cycle;Max_cycle;Signal;HPM_P1;HPM_P2
2023/08/29 00:03:15;;;;;;;;;;;;;;;13.06;93.2832;101416.3;;;;-79
2023/08/29 00:08:15;;;;;;;;;;;;;;;13.01;92.51953;101411.4;;;;-80
2023/08/29 00:12:15;;;;;;;6;1.8;;;;;;;;;;;;;-80
2023/08/29 00:13:15;;;;;;;;;;;;;;;12.96;92.21094;101406.4;;;;-81
2023/08/29 00:18:15;;;;;;;;;;;;;;;12.91;92.98828;101399.1;;;;-81
2023/08/29 00:23:15;;;;;;;;;;;;;;;12.86;91.85742;101394.1;;;;-80
2023/08/29 00:28:15;;;;;;;;;;;;;;;12.79;89.95703;101392.9;;;;-80
2023/08/29 00:33:15;;;;;;;;;;;;;;;12.73;91.04199;101394.4;;;;-80
2023/08/29 00:38:15;;;;;;;;;;;;;;;12.67;90.48535;101393;;;;-79
2023/08/29 00:42:17;;;;;;;3.3;1.4;;;;;;;;;;;;;-81
2023/08/29 00:43:15;;;;;;;;;;;;;;;12.63;89.4248;101399.5;;;;-80
2023/08/29 00:48:16;;;;;;;;;;;;;;;12.59;90.29297;101386.3;;;;-79
2023/08/29 00:53:17;;;;;;;;;;;;;;;12.55;91.55762;101387;;;;-80
2023/08/29 00:58:16;;;;;;;;;;;;;;;12.53;92.12988;101388.2;;;;-79
2023/08/29 01:03:15;;;;;;;;;;;;;;;12.47;90.72363;101383.6;;;;-80
2023/08/29 01:08:15;;;;;;;;;;;;;;;12.45;95.80957;101385.1;;;;-78
2023/08/29 01:12:20;;;;;;;2;1.3;;;;;;;;;;;;;-81
2023/08/29 01:13:19;;;;;;;;;;;;;;;12.5;100;101385.9;;;;-80
2023/08/29 01:18:15;;;;;;;;;;;;;;;12.35;100;101373.7;;;;-80
2023/08/29 01:23:20;;;;;;;;;;;;;;;12.31;99.0293;101373.9;;;;-80
2023/08/29 01:28:15;;;;;;;;;;;;;;;12.25;96.5957;101364.5;;;;-81
2023/08/29 01:33:15;;;;;;;;;;;;;;;12.21;96.60938;101357.8;;;;-80
2023/08/29 01:38:17;;;;;;;;;;;;;;;12.16;95.05176;101348.3;;;;-82
2023/08/29 01:42:21;;;;;;;3.1;1.3;;;;;;;;;;;;;-81
2023/08/29 01:43:15;;;;;;;;;;;;;;;12.13;94.40234;101346;;;;-80
2023/08/29 01:48:17;;;;;;;;;;;;;;;12.06;98.19922;101341.5;;;;-80
2023/08/29 01:53:17;;;;;;;;;;;;;;;12.17;100;101365.8;;;;-80
2023/08/29 01:58:16;;;;;;;;;;;;;;;12.11;100;101366.4;;;;-79
2023/08/29 02:03:15;;;;;;;;;;;;;;;12.06;100;101374.4;;;;-80
2023/08/29 02:08:15;;;;;;;;;;;;;;;11.97;100;101373.8;;;;-79
2023/08/29 02:12:24;;;;;;;3.1;1.8;;;;;;;;;;;;;-81
2023/08/29 02:13:15;;;;;;;;;;;;;;;11.9;98.23047;101375.2;;;;-80
2023/08/29 02:18:15;;;;;;;;;;;;;;;11.89;99.09863;101371.5;;;;-79
2023/08/29 02:23:22;;;;;;;;;;;;;;;11.93;99.74023;101371.6;;;;-80
2023/08/29 02:28:18;;;;;;;;;;;;;;;12.06;100;101363.7;;;;-80
2023/08/29 02:33:15;;;;;;;;;;;;;;;12.11;100;101358.9;;;;-79
2023/08/29 02:38:15;;;;;;;;;;;;;;;12.17;100;101354.4;;;;-79
2023/08/29 02:42:25;;;;;;;5.1;2.8;;;;;;;;;;;;;-79
2023/08/29 02:43:15;;;;;;;;;;;;;;;12.16;100;101356.8;;;;-80
2023/08/29 02:48:20;;;;;;;;;;;;;;;12.24;100;101369.1;;;;-79
2023/08/29 02:53:22;;;;;;;;;;;;;;;12.26;100;101372.6;;;;-79
2023/08/29 02:58:15;;;;;;;;;;;;;;;12.31;100;101373;;;;-80
2023/08/29 03:03:17;;;;;;;;;;;;;;;12.27;100;101368.2;;;;-80
2023/08/29 03:08:15;;;;;;;;;;;;;;;12.23;100;101369.4;;;;-80
2023/08/29 03:12:27;;;;;;;2.4;1.8;;;;;;;;;;;;;-80
2023/08/29 03:13:27;;;;;;;;;;;;;;;12.26;100;101371.5;;;;-78
2023/08/29 03:18:18;;;;;;;;;;;;;;;12.32;100;101371.7;;;;-80
2023/08/29 03:23:15;;;;;;;;;;;;;;;12.43;100;101375;;;;-81
2023/08/29 03:28:15;;;;;;;;;;;;;;;12.54;100;101371.6;;;;-81
2023/08/29 03:33:15;;;;;;;;;;;;;;;12.62;100;101379.3;;;;-81
2023/08/29 03:38:15;;;;;;;;;;;;;;;12.79;100;101386.9;;;;-80
2023/08/29 03:42:29;;;;;;;3.5;2.3;;;;;;;;;;;;;-81
2023/08/29 03:43:15;;;;;;;;;;;;;;;12.8;100;101393.6;;;;-79
2023/08/29 03:48:15;;;;;;;;;;;;;;;12.89;100;101392.2;;;;-79
2023/08/29 03:53:15;;;;;;;;;;;;;;;13.04;100;101386.3;;;;-81
2023/08/29 03:58:18;;;;;;;;;;;;;;;13.16;100;101392.2;;;;-81
2023/08/29 04:03:17;;;;;;;;;;;;;;;13.26;100;101387.8;;;;-80
2023/08/29 04:08:15;;;;;;;;;;;;;;;13.36;100;101381.8;;;;-81
2023/08/29 04:12:31;;;;;;;6.8;3.7;;;;;;;;;;;;;-80
2023/08/29 04:13:15;;;;;;;;;;;;;;;13.42;100;101378.6;;;;-81
2023/08/29 04:18:15;;;;;;;;;;;;;;;13.46;100;101382.1;;;;-79
2023/08/29 04:23:15;;;;;;;;;;;;;;;13.52;100;101381.9;;;;-81
2023/08/29 04:28:20;;;;;;;;;;;;;;;13.59;100;101372.4;;;;-80
2023/08/29 04:33:15;;;;;;;;;;;;;;;13.63;100;101367;;;;-80
2023/08/29 04:38:15;;;;;;;;;;;;;;;13.66;100;101369.5;;;;-80
2023/08/29 04:42:33;;;;;;;6.3;3.9;;;;;;;;;;;;;-80
2023/08/29 04:43:20;;;;;;;;;;;;;;;13.66;100;101353.1;;;;-80
2023/08/29 04:48:17;;;;;;;;;;;;;;;13.64;100;101359.4;;;;-80
2023/08/29 04:53:16;;;;;;;;;;;;;;;13.64;100;101356.5;;;;-80
2023/08/29 04:58:15;;;;;;;;;;;;;;;13.57;100;101347.8;;;;-79
2023/08/29 05:03:15;;;;;;;;;;;;;;;13.54;100;101345.5;;;;-79
2023/08/29 05:08:16;;;;;;;;;;;;;;;13.48;100;101340.7;;;;-79
2023/08/29 05:12:35;;;;;;;6.7;4;;;;;;;;;;;;;-80
2023/08/29 05:13:17;;;;;;;;;;;;;;;13.39;100;101335.9;;;;-81
2023/08/29 05:18:15;;;;;;;;;;;;;;;13.31;100;101328.3;;;;-81
2023/08/29 05:23:15;;;;;;;;;;;;;;;13.24;100;101318.8;;;;-81
2023/08/29 05:28:15;;;;;;;;;;;;;;;13.09;100;101313.9;;;;-81
2023/08/29 05:33:17;;;;;;;;;;;;;;;12.99;100;101304;;;;-80
2023/08/29 05:38:16;;;;;;;;;;;;;;;12.96;100;101310.7;;;;-80
2023/08/29 05:42:38;;;;;;;3.1;2.2;;;;;;;;;;;;;-81
2023/08/29 05:43:15;;;;;;;;;;;;;;;12.93;100;101316.7;;;;-81
2023/08/29 05:48:15;;;;;;;;;;;;;;;12.97;100;101320.4;;;;-80
2023/08/29 05:53:15;;;;;;;;;;;;;;;13.07;100;101323.1;;;;-81
2023/08/29 05:58:15;;;;;;;;;;;;;;;13.14;100;101317.1;;;;-79
2023/08/29 06:03:15;;;;;;;;;;;;;;;13.25;100;101307.7;;;;-80
2023/08/29 06:08:16;;;;;;;;;;;;;;;13.83;100;101306.2;;;;-79
2023/08/29 06:12:40;;;;;;;5.3;3.4;;;;;;;;;;;;;-81
2023/08/29 06:13:15;;;;;;;;;;;;;;;14.52;100;101306.9;;;;-79
2023/08/29 06:18:15;;;;;;;;;;;;;;;14.84;100;101305;;;;-79
2023/08/29 06:23:15;;;;;;;;;;;;;;;14.92;100;101302.3;;;;-82
2023/08/29 06:28:15;;;;;;;;;;;;;;;15.22;100;101298;;;;-80
2023/08/29 06:33:15;;;;;;;;;;;;;;;15.29;100;101296.5;;;;-79
2023/08/29 06:38:15;;;;;;;;;;;;;;;15.44;100;101299;;;;-80
2023/08/29 06:42:41;;;;;;;6.6;3.5;;;;;;;;;;;;;-80
2023/08/29 06:43:15;;;;;;;;;;;;;;;15.56;100;101292.6;;;;-79
2023/08/29 06:48:15;;;;;;;;;;;;;;;15.74;100;101296.4;;;;-81
2023/08/29 06:53:15;;;;;;;;;;;;;;;15.93;100;101297.6;;;;-80
2023/08/29 06:58:15;;;;;;;;;;;;;;;16.22;100;101297.3;;;;-80
2023/08/29 07:03:16;;;;;;;;;;;;;;;16.56;97.41895;101300;;;;-80
2023/08/29 07:08:16;;;;;;;;;;;;;;;16.9;95.61719;101305.1;;;;-80
2023/08/29 07:12:47;;;;;;;10.3;4.9;;;;;;;;;;;;;-81
2023/08/29 07:13:15;;;;;;;;;;;;;;;16.99;94.9082;101306.3;;;;-81
2023/08/29 07:18:15;;;;;;;;;;;;;;;17.31;92.37988;101309.7;;;;-80
2023/08/29 07:23:28;;;;;;;;;;;;;;;17.56;90.74121;101304.9;;;;-80
2023/08/29 07:28:16;;;;;;;;;;;;;;;17.7;89.43555;101308;;;;-80
2023/08/29 07:33:15;;;;;;;;;;;;;;;17.81;88.80566;101303.2;;;;-79
2023/08/29 07:38:16;;;;;;;;;;;;;;;17.91;87.93848;101300.1;;;;-73
2023/08/29 07:42:51;;;;;;;11.5;5.3;;;;;;;;;;;;;-74
2023/08/29 07:43:18;;;;;;;;;;;;;;;17.96;88.88086;101297.6;;;;-73
2023/08/29 07:48:18;;;;;;;;;;;;;;;18.1;85.37109;101305.6;;;;-74
2023/08/29 07:53:17;;;;;;;;;;;;;;;18.21;84.85254;101303.2;;;;-73
2023/08/29 07:58:15;;;;;;;;;;;;;;;18.37;84.09277;101302.5;;;;-75
2023/08/29 08:03:21;;;;;;;;;;;;;;;18.35;80.9375;101300.1;;;;-77
2023/08/29 08:08:15;;;;;;;;;;;;;;;18.53;80.64355;101296.6;;;;-75
2023/08/29 08:12:50;;;;;;;6.5;3.5;;;;;;;;;;;;;-77
2023/08/29 08:13:17;;;;;;;;;;;;;;;18.71;81.19531;101295.4;;;;-74
2023/08/29 08:18:15;;;;;;;;;;;;;;;18.76;79.7627;101295.1;;;;-73
2023/08/29 08:23:16;;;;;;;;;;;;;;;18.96;78.98438;101287;;;;-75
2023/08/29 08:28:17;;;;;;;;;;;;;;;18.92;77.43359;101279.9;;;;-76
2023/08/29 08:33:17;;;;;;;;;;;;;;;19.08;77.65234;101283.3;;;;-75
2023/08/29 08:38:15;;;;;;;;;;;;;;;19.28;76.25;101272.5;;;;-74
2023/08/29 08:42:54;;;;;;;5.3;2.3;;;;;;;;;;;;;-75
2023/08/29 08:43:15;;;;;;;;;;;;;;;19.5;73.80078;101275.7;;;;-73
2023/08/29 08:48:15;;;;;;;;;;;;;;;19.65;68.88574;101271.1;;;;-74
2023/08/29 08:53:18;;;;;;;;;;;;;;;20.09;68.72656;101268.9;;;;-75
2023/08/29 08:58:15;;;;;;;;;;;;;;;20.63;65.63965;101266.5;;;;-76
2023/08/29 09:03:16;;;;;;;;;;;;;;;20.8;63.36523;101260.3;;;;-75
2023/08/29 09:08:18;;;;;;;;;;;;;;;21.14;62.35547;101256.5;;;;-75
2023/08/29 09:12:58;;;;;;;3.7;2.2;;;;;;;;;;;;;-74
2023/08/29 09:13:23;;;;;;;;;;;;;;;21.07;61.86719;101255.5;;;;-74
2023/08/29 09:18:15;;;;;;;;;;;;;;;21.04;60.89355;101258.9;;;;-81
2023/08/29 09:23:29;;;;;;;;;;;;;;;21.09;61.08301;101268.1;;;;-81
2023/08/29 09:28:16;;;;;;;;;;;;;;;21;60.625;101263.9;;;;-81
2023/08/29 09:33:20;;;;;;;;;;;;;;;20.93;59.97754;101256.6;;;;-82
2023/08/29 09:38:15;;;;;;;;;;;;;;;20.69;60.92578;101262.3;;;;-81
2023/08/29 09:43:02;;;;;;;3;1.6;;;;;;;;;;;;;-80
2023/08/29 09:43:18;;;;;;;;;;;;;;;20.72;62.41016;101262.3;;;;-79
2023/08/29 09:48:15;;;;;;;;;;;;;;;20.66;63.81348;101259.1;;;;-79
2023/08/29 09:53:16;;;;;;;;;;;;;;;20.51;65.38379;101256.3;;;;-79
2023/08/29 09:58:17;;;;;;;;;;;;;;;20.42;66.43848;101257.5;;;;-81
2023/08/29 10:03:15;;;;;;;;;;;;;;;20.42;67.33594;101257.4;;;;-81
2023/08/29 10:08:17;;;;;;;;;;;;;;;20.31;67.58105;101253.4;;;;-81
2023/08/29 10:13:05;;;;;;;3.9;1.8;;;;;;;;;;;;;-81
2023/08/29 10:13:19;;;;;;;;;;;;;;;20.21;68.17871;101241.9;;;;-82
2023/08/29 10:18:16;;;;;;;;;;;;;;;20.26;67.09668;101245.1;;;;-81
2023/08/29 10:23:16;;;;;;;;;;;;;;;20.3;66.52344;101244.5;;;;-81
2023/08/29 10:28:20;;;;;;;;;;;;;;;20.23;63.68262;101242.3;;;;-81
2023/08/29 10:33:15;;;;;;;;;;;;;;;20.33;65.0498;101240.9;;;;-82
2023/08/29 10:38:17;;;;;;;;;;;;;;;20.31;64.71777;101239.8;;;;-81
2023/08/29 10:43:25;;;;;;;4.1;2.9;;;;;;;;;;;;;-79
2023/08/29 10:43:46;;;;;;;;;;;;;;;20.4;64.11719;101210.9;;;;-83
2023/08/29 10:48:19;;;;;;;;;;;;;;;20.58;63.66504;101238.2;;;;-81
2023/08/29 10:53:20;;;;;;;;;;;;;;;20.85;62.96387;101235.4;;;;-82
2023/08/29 10:58:26;;;;;;;;;;;;;;;21.09;61.79004;101229.7;;;;-81
2023/08/29 11:03:15;;;;;;;;;;;;;;;21.23;61.51172;101228.4;;;;-80
2023/08/29 11:08:27;;;;;;;;;;;;;;;21.46;60.33398;101220.7;;;;-80
2023/08/29 11:13:16;;;;;;;3.5;2.2;;;;;;;;;;;;;-80
2023/08/29 11:13:28;;;;;;;;;;;;;;;21.45;56.66797;101196.7;;;;-81
2023/08/29 11:18:30;;;;;;;;;;;;;;;21.71;55.75293;101208.8;;;;-82
2023/08/29 11:23:15;;;;;;;;;;;;;;;22.04;54.38574;101197.5;;;;-80
2023/08/29 11:28:26;;;;;;;;;;;;;;;22.04;53.08105;101193.6;;;;-80
2023/08/29 11:33:19;;;;;;;;;;;;;;;22.69;52.6875;101189.6;;;;-79
2023/08/29 11:38:16;;;;;;;;;;;;;;;22.29;50.68164;101186.5;;;;-82
2023/08/29 11:43:15;;;;;;;;;;;;;;;22.27;51.96191;101190.5;;;;-81
2023/08/29 11:43:36;;;;;;;3.5;1.8;;;;;;;;;;;;;-81
2023/08/29 11:48:15;;;;;;;;;;;;;;;22.2;52.30859;101187.8;;;;-81
2023/08/29 11:53:24;;;;;;;;;;;;;;;22.44;51.19141;101188.3;;;;-79
2023/08/29 11:58:15;;;;;;;;;;;;;;;22.17;51.34375;101186.5;;;;-80
2023/08/29 12:03:19;;;;;;;;;;;;;;;22.37;50.5752;101190;;;;-81
2023/08/29 12:08:15;;;;;;;;;;;;;;;22.1;53.83301;101189.6;;;;-82
2023/08/29 12:13:17;;;;;;;;;;;;;;;21.93;55.25391;101194.1;;;;-79
2023/08/29 12:13:29;;;;;;;6.7;3.1;;;;;;;;;;;;;-79
2023/08/29 12:18:23;;;;;;;;;;;;;;;21.72;56.77148;101197.3;;;;-79
2023/08/29 12:23:26;;;;;;;;;;;;;;;21.75;56.69629;101188.5;;;;-78
2023/08/29 12:28:15;;;;;;;;;;;;;;;21.88;56.71191;101186.8;;;;-78
2023/08/29 12:33:17;;;;;;;;;;;;;;;21.43;57.4541;101180.1;;;;-80
2023/08/29 12:38:15;;;;;;;;;;;;;;;21.39;58.52246;101186.2;;;;-80
2023/08/29 12:43:17;;;;;;;;;;;;;;;21.16;57.69336;101185.9;;;;-79
2023/08/29 12:43:27;;;;;;;2.6;2;;;;;;;;;;;;;-79
2023/08/29 12:48:18;;;;;;;;;;;;;;;21.04;58.56836;101179.3;;;;-80
2023/08/29 12:53:15;;;;;;;;;;;;;;;20.87;58.03125;101179.7;;;;-79
2023/08/29 12:58:15;;;;;;;;;;;;;;;20.72;58.98145;101171.4;;;;-79
2023/08/29 13:03:15;;;;;;;;;;;;;;;20.72;59.80176;101167;;;;-79
2023/08/29 13:08:15;;;;;;;;;;;;;;;20.53;59.35352;101154.3;;;;-80
2023/08/29 13:13:19;;;;;;;;;;;;;;;20.43;60.38867;101161.5;;;;-82
2023/08/29 13:13:31;;;;;;;3.3;2.3;;;;;;;;;;;;;-82
2023/08/29 13:18:23;;;;;;;;;;;;;;;20.17;62.49316;101151.3;;;;-80
2023/08/29 13:23:15;;;;;;;;;;;;;;;19.37;73.79102;101163.1;;;;-82
2023/08/29 13:28:15;;;;;;;;;;;;;;;19.01;73.75293;101158.2;;;;-84
2023/08/29 13:33:15;;;;;;;;;;;;;;;19.01;75.57227;101156.5;;;;-82
2023/08/29 13:47:54;;;;;;;;;;;;;;;19.08;76.47754;101149.4;;;;-81
2023/08/29 13:52:55;;;;;;;;;;;;;;;19.23;77.37207;101144.6;;;;-83
2023/08/29 13:57:50;;;;;;;;;;;;;;;19.25;76.91406;101144.6;;;;-82
2023/08/29 14:02:57;;;;;;;;;;;;;;;18.99;73.75;101132.1;;;;-83
2023/08/29 14:08:00;;;;;;;;;;;;;;;18.99;73.55859;101137.9;;;;-82
2023/08/29 14:12:56;;;;;;;;;;;;;;;19.02;75.55273;101134.1;;;;-84
2023/08/29 14:13:41;;;;;;;6.1;3.4;;;;;;;;;;;;;-84
2023/08/29 14:17:53;;;;;;;;;;;;;;;19.38;69.37793;101121.7;;;;-83
2023/08/29 14:23:00;;;;;;;;;;;;;;;19.56;64.92676;101125.8;;;;-82
2023/08/29 14:28:01;;;;;;;;;;;;;;;;;;;;;
2023/08/29 14:33:15;;;;;;;;;;;;;;;;;;;;;
2023/08/29 14:37:59;;;;;;;;;;;;;;;20.13;63.48633;101119.3;;;;-85
2023/08/29 14:43:46;;;;;;;3.4;2.1;;;;;;;;;;;;;-83
2023/08/29 14:47:57;;;;;;;;;;;;;;;20.44;58.68359;101110.2;;;;-84
2023/08/29 14:52:55;;;;;;;;;;;;;;;20.52;60.6748;101114.9;;;;-85
2023/08/29 14:57:59;;;;;;;;;;;;;;;20.57;57.95898;101114.3;;;;-81
2023/08/29 15:02:58;;;;;;;;;;;;;;;20.73;58.5166;101110.5;;;;-82
2023/08/29 15:07:55;;;;;;;;;;;;;;;20.81;56.96289;101109.2;;;;-83
2023/08/29 15:12:59;;;;;;;;;;;;;;;20.76;56.82129;101105.9;;;;-83
2023/08/29 15:13:44;;;;;;;5.5;2.1;;;;;;;;;;;;;-82
2023/08/29 15:17:55;;;;;;;;;;;;;;;20.67;58.58789;101111.4;;;;-83
2023/08/29 15:22:57;;;;;;;;;;;;;;;20.58;61.34375;101109.4;;;;-83
2023/08/29 15:27:57;;;;;;;;;;;;;;;20.42;58.56543;101108.5;;;;-82
2023/08/29 15:32:53;;;;;;;;;;;;;;;20.41;60.73926;101109.9;;;;-84
2023/08/29 15:38:01;;;;;;;;;;;;;;;20.23;61.36328;101117.6;;;;-84
2023/08/29 15:43:54;;;;;;;6.2;2.4;;;;;;;;;;;;;-83
2023/08/29 15:52:56;;;;;;;;;;;;;;;19.97;63.89648;101120.1;;;;-84
2023/08/29 15:57:54;;;;;;;;;;;;;;;20.04;64.56543;101119.4;;;;-83
2023/08/29 16:02:55;;;;;;;;;;;;;;;20.06;63.34082;101120.2;;;;-83
2023/08/29 16:07:53;;;;;;;;;;;;;;;20.1;62.42578;101115.8;;;;-85
2023/08/29 16:13:02;;;;;;;;;;;;;;;20.12;62.25781;101122.5;;;;-84
2023/08/29 16:14:03;;;;;;;5.1;2.7;;;;;;;;;;;;;-83
2023/08/29 16:23:15;;;;;;;;;;;;;;;19.91;63.31934;101120.6;;;;-84
2023/08/29 16:28:02;;;;;;;;;;;;;;;19.91;64.90918;101126.2;;;;-84
2023/08/29 16:32:55;;;;;;;;;;;;;;;20.01;63.76563;101124.5;;;;-85
2023/08/29 16:43:04;;;;;;;;;;;;;;;19.49;64.73633;101125.7;;;;-82
2023/08/29 16:44:00;;;;;;;5.5;2.9;;;;;;;;;;;;;-84
2023/08/29 16:48:18;;;;;;;;;;;;;;;19.4;65.50488;101130.1;;;;-83
2023/08/29 16:52:59;;;;;;;;;;;;;;;19.32;66.09473;101124.9;;;;-83
2023/08/29 16:58:02;;;;;;;;;;;;;;;19.12;66.29199;101126.4;;;;-82
2023/08/29 17:02:53;;;;;;;;;;;;;;;18.98;67.20996;101125.8;;;;-84
2023/08/29 17:07:54;;;;;;;;;;;;;;;18.87;68.13281;101126.3;;;;-84
2023/08/29 17:12:57;;;;;;;;;;;;;;;18.72;68.17676;101127.6;;;;-84
2023/08/29 17:14:04;;;;;;;5.6;3.1;;;;;;;;;;;;;-81
2023/08/29 17:18:08;;;;;;;;;;;;;;;18.45;67.67188;101118.2;;;;-82
2023/08/29 17:22:58;;;;;;;;;;;;;;;18.25;68.97656;101128.1;;;;-83
2023/08/29 17:27:50;;;;;;;;;;;;;;;18.07;69.08398;101124.9;;;;-82
2023/08/29 17:33:05;;;;;;;;;;;;;;;;;;;;;
2023/08/29 17:37:50;;;;;;;;;;;;;;;17.48;71.50586;101126.1;;;;-82
2023/08/29 17:42:51;;;;;;;;;;;;;;;17.37;72.32227;101120.7;;;;-83
2023/08/29 17:44:14;;;;;;;7.2;3.3;;;;;;;;;;;;;-85
2023/08/29 17:47:53;;;;;;;;;;;;;;;17.24;71.32031;101114.4;;;;-84
2023/08/29 17:52:52;;;;;;;;;;;;;;;17.1;71.24219;101110.7;;;;-83
2023/08/29 17:57:58;;;;;;;;;;;;;;;16.91;70.62598;101114.8;;;;-83
2023/08/29 18:03:11;;;;;;;;;;;;;;;16.7;72.23633;101111.6;;;;-84
2023/08/29 18:07:55;;;;;;;;;;;;;;;16.5;72.80957;101115.9;;;;-81
2023/08/29 18:13:06;;;;;;;;;;;;;;;16.37;74.23633;101110.8;;;;-81
2023/08/29 18:14:06;;;;;;;8.3;4.4;;;;;;;;;;;;;-83
2023/08/29 18:17:55;;;;;;;;;;;;;;;16.24;75.8877;101108.7;;;;-83
2023/08/29 18:22:59;;;;;;;;;;;;;;;16.02;76.36816;101109;;;;-81
2023/08/29 18:27:55;;;;;;;;;;;;;;;15.86;76.66504;101104.1;;;;-83
2023/08/29 18:32:59;;;;;;;;;;;;;;;15.69;78.55078;101100.4;;;;-82
2023/08/29 18:37:53;;;;;;;;;;;;;;;15.56;79.18945;101097.5;;;;-83
2023/08/29 18:42:51;;;;;;;;;;;;;;;15.48;80.76465;101104;;;;-82
2023/08/29 18:44:22;;;;;;;8.9;4.1;;;;;;;;;;;;;-83
2023/08/29 18:47:55;;;;;;;;;;;;;;;15.34;81.33105;101102.8;;;;-81
2023/08/29 18:52:59;;;;;;;;;;;;;;;15.24;81.54785;101098.6;;;;-82
2023/08/29 18:57:59;;;;;;;;;;;;;;;15.16;81.5791;101099.5;;;;-84
2023/08/29 19:03:12;;;;;;;;;;;;;;;15.08;82.45605;101101.8;;;;-84
2023/08/29 19:08:00;;;;;;;;;;;;;;;15.05;83.06543;101104;;;;-85
2023/08/29 19:13:13;;;;;;;;;;;;;;;15;83.73633;101100.4;;;;-85
2023/08/29 19:18:03;;;;;;;;;;;;;;;14.93;83.79004;101103.9;;;;-86
2023/08/29 19:22:59;;;;;;;;;;;;;;;14.87;84.69629;101100.8;;;;-84
2023/08/29 19:28:05;;;;;;;;;;;;;;;14.84;83.7627;101100.8;;;;-84
2023/08/29 19:33:11;;;;;;;;;;;;;;;14.82;83.37988;101097.1;;;;-86
2023/08/29 19:57:42;;;;;;;;;;;;;;;14.94;83.02246;101085.4;;;;-81
2023/08/29 20:07:55;;;;;;;;;;;;;;;15.02;81.67285;101083.3;;;;-82
2023/08/29 20:14:40;;;;;;;7.2;3.9;;;;;;;;;;;;;-79
2023/08/29 20:16:18;;;;;;;;;;;;;;;15.04;81.25391;101074.9;;;;-80
2023/08/29 20:21:13;;;;;;;;;;;;;;;15.08;80.67871;101075.5;;;;-80
2023/08/29 20:26:14;;;;;;;;;;;;;;;15.09;81.35352;101070.8;;;;-81
2023/08/29 20:31:18;;;;;;;;;;;;;;;15.09;81.78906;101067.2;;;;-79
2023/08/29 20:36:47;;;;;;;;;;;;;;;;;;;;;
2023/08/29 20:41:15;;;;;;;;;;;;;;;15.13;82.98047;101057.2;;;;-82
2023/08/29 20:53:11;;;;;;;;;;;;;;;15.14;82.60156;101055.2;;;;-82
2023/08/29 20:58:25;;;;;;;;;;;;;;;15.14;82.05469;101054.9;;;;-82
2023/08/29 21:03:04;;;;;;;;;;;;;;;15.17;82.07031;101058.3;;;;-80
2023/08/29 21:08:13;;;;;;;;;;;;;;;15.18;82.93457;101058.9;;;;-81
2023/08/29 21:13:17;;;;;;;;;;;;;;;15.18;83.4707;101051.9;;;;-80
2023/08/29 21:14:35;;;;;;;5.5;3;;;;;;;;;;;;;-82
2023/08/29 21:18:11;;;;;;;;;;;;;;;15.19;83.05957;101048;;;;-81
2023/08/29 21:27:51;;;;;;;;;;;;;;;15.17;83.34668;101042.8;;;;-80
2023/08/29 21:32:58;;;;;;;;;;;;;;;15.16;83.08594;101033.9;;;;-82
2023/08/29 21:37:47;;;;;;;;;;;;;;;15.09;83.09668;101027.8;;;;-80
2023/08/29 21:42:55;;;;;;;;;;;;;;;15.03;83.31836;101029.1;;;;-80
2023/08/29 21:44:41;;;;;;;7;2.4;;;;;;;;;;;;;-79
2023/08/29 21:47:57;;;;;;;;;;;;;;;14.99;82.45215;101024.7;;;;-82
2023/08/29 21:53:02;;;;;;;;;;;;;;;14.93;81.84668;101019.1;;;;-82
2023/08/29 21:57:45;;;;;;;;;;;;;;;14.81;80.91016;101009.4;;;;-81
2023/08/29 22:02:49;;;;;;;;;;;;;;;14.67;81.0625;101008.7;;;;-81
2023/08/29 22:07:52;;;;;;;;;;;;;;;14.57;81.18945;101008.5;;;;-81
2023/08/29 22:12:46;;;;;;;;;;;;;;;14.46;81.42773;100999.6;;;;-80
2023/08/29 22:14:31;;;;;;;4.4;2.1;;;;;;;;;;;;;-80
2023/08/29 22:17:59;;;;;;;;;;;;;;;14.36;81.9209;100985.3;;;;-80
2023/08/29 22:22:46;;;;;;;;;;;;;;;14.25;82.64746;100981.2;;;;-80
2023/08/29 22:27:45;;;;;;;;;;;;;;;14.19;83.00488;100983.1;;;;-81
2023/08/29 22:33:03;;;;;;;;;;;;;;;14.1;83.50098;100980.5;;;;-81
2023/08/29 22:37:48;;;;;;;;;;;;;;;14.03;83.82129;100974.7;;;;-81
2023/08/29 22:42:47;;;;;;;;;;;;;;;13.99;84.02637;100964.9;;;;-81
2023/08/29 22:44:42;;;;;;;5.1;2.6;;;;;;;;;;;;;-80
2023/08/29 22:47:48;;;;;;;;;;;;;;;13.96;84.75391;100954.7;;;;-82
2023/08/29 22:53:01;;;;;;;;;;;;;;;13.92;84.35742;100953.4;;;;-81
2023/08/29 22:57:50;;;;;;;;;;;;;;;13.86;84.99316;100945.1;;;;-80
2023/08/29 23:02:50;;;;;;;;;;;;;;;13.82;84.4834;100939.2;;;;-81
2023/08/29 23:13:00;;;;;;;;;;;;;;;13.71;86.88965;100928.6;;;;-81
2023/08/29 23:14:37;;;;;;;7;3.3;;;;;;;;;;;;;-81
2023/08/29 23:17:53;;;;;;;;;;;;;;;13.65;87.33105;100921;;;;-81
2023/08/29 23:22:54;;;;;;;;;;;;;;;13.6;89.48926;100919.3;;;;-82
2023/08/29 23:27:55;;;;;;;;;;;;;;;13.55;90.28027;100915.6;;;;-80
2023/08/29 23:33:03;;;;;;;;;;;;;;;13.5;90.50195;100905;;;;-80
2023/08/29 23:37:54;;;;;;;;;;;;;;;13.45;91.33691;100898.4;;;;-81
2023/08/29 23:42:45;;;;;;;;;;;;;;;13.37;91.98535;100896.3;;;;-82
2023/08/29 23:44:45;;;;;;;5.7;4.2;;;;;;;;;;;;;-81
2023/08/29 23:47:59;;;;;;;;;;;;;;;13.26;92.95898;100890.4;;;;-79
2023/08/29 23:52:45;;;;;;;;;;;;;;;13.18;92.89941;100888.4;;;;-81
2023/08/29 23:57:51;;;;;;;;;;;;;;;13.07;93.78516;100882.9;;;;-81
